sensor_id;sensor_type;location;lat;lon;timestamp;pressure;altitude;pressure_sealevel;temperature;humidity
15529;BME280;7866;52.280;9.500;2024-03-08T00:03:41;100946.38;;;0.97;100.00
15529;BME280;7866;52.280;9.500;2024-03-08T00:08:43;100945.06;;;1.04;100.00
15529;BME280;7866;52.280;9.500;2024-03-08T00:13:45;100938.53;;;0.95;100.00
15529;BME280;7866;52.280;9.500;2024-03-08T00:18:48;100942.13;;;0.94;100.00
15529;BME280;7866;52.280;9.500;2024-03-08T00:23:50;100938.16;;;0.87;100.00
15529;BME280;7866;52.280;9.500;2024-03-08T00:28:51;100946.06;;;0.87;100.00
15529;BME280;7866;52.280;9.500;2024-03-08T00:33:55;100947.47;;;0.79;100.00
15529;BME280;7866;52.280;9.500;2024-03-08T00:38:57;100937.09;;;0.76;100.00
15529;BME280;7866;52.280;9.500;2024-03-08T00:44:01;100938.63;;;0.80;100.00
15529;BME280;7866;52.280;9.500;2024-03-08T00:49:05;100927.91;;;0.83;100.00
15529;BME280;7866;52.280;9.500;2024-03-08T00:54:07;100915.44;;;0.70;100.00
15529;BME280;7866;52.280;9.500;2024-03-08T00:59:08;100914.88;;;0.65;100.00
15529;BME280;7866;52.280;9.500;2024-03-08T01:04:11;100904.84;;;0.72;100.00
15529;BME280;7866;52.280;9.500;2024-03-08T01:09:13;100905.66;;;0.58;100.00
15529;BME280;7866;52.280;9.500;2024-03-08T01:14:17;100896.88;;;0.58;100.00
15529;BME280;7866;52.280;9.500;2024-03-08T01:19:20;100883.81;;;0.56;100.00
15529;BME280;7866;52.280;9.500;2024-03-08T01:24:22;100868.47;;;0.48;100.00
15529;BME280;7866;52.280;9.500;2024-03-08T01:29:23;100876.38;;;0.48;100.00
15529;BME280;7866;52.280;9.500;2024-03-08T01:34:26;100868.25;;;0.37;100.00
15529;BME280;7866;52.280;9.500;2024-03-08T01:39:29;100867.56;;;0.34;100.00
15529;BME280;7866;52.280;9.500;2024-03-08T01:44:30;100854.75;;;0.28;100.00
15529;BME280;7866;52.280;9.500;2024-03-08T01:49:33;100851.22;;;0.29;100.00
15529;BME280;7866;52.280;9.500;2024-03-08T01:54:35;100839.91;;;0.27;100.00
15529;BME280;7866;52.280;9.500;2024-03-08T01:59:37;100840.66;;;0.29;100.00
15529;BME280;7866;52.280;9.500;2024-03-08T02:04:40;100822.91;;;0.32;100.00
15529;BME280;7866;52.280;9.500;2024-03-08T02:09:43;100825.50;;;0.18;100.00
15529;BME280;7866;52.280;9.500;2024-03-08T02:14:45;100823.47;;;0.07;100.00
15529;BME280;7866;52.280;9.500;2024-03-08T02:19:48;100819.44;;;0.02;100.00
15529;BME280;7866;52.280;9.500;2024-03-08T02:24:51;100819.25;;;0.05;100.00
15529;BME280;7866;52.280;9.500;2024-03-08T02:29:54;100823.97;;;0.14;100.00
15529;BME280;7866;52.280;9.500;2024-03-08T02:34:57;100818.88;;;0.11;100.00
15529;BME280;7866;52.280;9.500;2024-03-08T02:40:02;100817.09;;;0.11;100.00
15529;BME280;7866;52.280;9.500;2024-03-08T02:45:04;100813.06;;;0.06;100.00
15529;BME280;7866;52.280;9.500;2024-03-08T02:50:07;100810.69;;;0.01;100.00
15529;BME280;7866;52.280;9.500;2024-03-08T02:55:10;100800.50;;;-0.05;100.00
15529;BME280;7866;52.280;9.500;2024-03-08T03:00:16;100796.47;;;0.04;100.00
15529;BME280;7866;52.280;9.500;2024-03-08T03:05:19;100794.97;;;-0.01;100.00
15529;BME280;7866;52.280;9.500;2024-03-08T03:10:22;100783.75;;;-0.04;100.00
15529;BME280;7866;52.280;9.500;2024-03-08T03:15:24;100783.19;;;-0.09;100.00
15529;BME280;7866;52.280;9.500;2024-03-08T03:20:25;100780.75;;;-0.12;100.00
15529;BME280;7866;52.280;9.500;2024-03-08T03:25:34;100771.53;;;-0.19;100.00
15529;BME280;7866;52.280;9.500;2024-03-08T03:30:35;100765.66;;;-0.25;100.00
15529;BME280;7866;52.280;9.500;2024-03-08T03:35:37;100769.28;;;-0.11;100.00
15529;BME280;7866;52.280;9.500;2024-03-08T03:40:40;100765.31;;;-0.18;100.00
15529;BME280;7866;52.280;9.500;2024-03-08T03:45:42;100769.41;;;-0.29;100.00
15529;BME280;7866;52.280;9.500;2024-03-08T03:50:44;100761.53;;;-0.29;100.00
15529;BME280;7866;52.280;9.500;2024-03-08T03:55:47;100757.75;;;-0.39;100.00
15529;BME280;7866;52.280;9.500;2024-03-08T04:00:48;100753.06;;;-0.34;100.00
15529;BME280;7866;52.280;9.500;2024-03-08T04:05:50;100758.22;;;-0.32;100.00
15529;BME280;7866;52.280;9.500;2024-03-08T04:10:53;100756.69;;;-0.36;100.00
15529;BME280;7866;52.280;9.500;2024-03-08T04:15:55;100751.72;;;-0.41;100.00
15529;BME280;7866;52.280;9.500;2024-03-08T04:20:57;100743.81;;;-0.41;100.00
15529;BME280;7866;52.280;9.500;2024-03-08T04:26:00;100736.53;;;-0.36;100.00
15529;BME280;7866;52.280;9.500;2024-03-08T04:31:01;100743.41;;;-0.49;100.00
15529;BME280;7866;52.280;9.500;2024-03-08T04:36:03;100737.03;;;-0.45;100.00
15529;BME280;7866;52.280;9.500;2024-03-08T04:41:06;100741.19;;;-0.41;100.00
15529;BME280;7866;52.280;9.500;2024-03-08T04:46:08;100737.03;;;-0.45;100.00
15529;BME280;7866;52.280;9.500;2024-03-08T04:51:10;100732.66;;;-0.60;100.00
15529;BME280;7866;52.280;9.500;2024-03-08T04:56:13;100729.69;;;-0.54;100.00
15529;BME280;7866;52.280;9.500;2024-03-08T05:01:15;100723.09;;;-0.61;100.00
15529;BME280;7866;52.280;9.500;2024-03-08T05:06:16;100732.66;;;-0.60;100.00
15529;BME280;7866;52.280;9.500;2024-03-08T05:11:22;100725.97;;;-0.66;100.00
15529;BME280;7866;52.280;9.500;2024-03-08T05:16:24;100726.94;;;-0.67;100.00
15529;BME280;7866;52.280;9.500;2024-03-08T05:21:25;100724.97;;;-0.63;100.00
15529;BME280;7866;52.280;9.500;2024-03-08T05:26:28;100721.41;;;-0.62;100.00
15529;BME280;7866;52.280;9.500;2024-03-08T05:31:36;100719.88;;;-0.66;100.00
15529;BME280;7866;52.280;9.500;2024-03-08T05:36:40;100714.88;;;-0.71;100.00
15529;BME280;7866;52.280;9.500;2024-03-08T05:41:43;100726.41;;;-0.73;100.00
15529;BME280;7866;52.280;9.500;2024-03-08T05:46:46;100721.06;;;-0.72;100.00
15529;BME280;7866;52.280;9.500;2024-03-08T05:51:47;100718.88;;;-0.64;100.00
15529;BME280;7866;52.280;9.500;2024-03-08T05:56:50;100710.91;;;-0.48;100.00
15529;BME280;7866;52.280;9.500;2024-03-08T06:01:53;100719.56;;;-0.46;100.00
15529;BME280;7866;52.280;9.500;2024-03-08T06:06:54;100719.34;;;-0.27;100.00
15529;BME280;7866;52.280;9.500;2024-03-08T06:11:59;100717.38;;;-0.23;100.00
15529;BME280;7866;52.280;9.500;2024-03-08T06:17:02;100723.72;;;-0.12;100.00
15529;BME280;7866;52.280;9.500;2024-03-08T06:22:04;100721.59;;;-0.21;100.00
15529;BME280;7866;52.280;9.500;2024-03-08T06:27:08;100716.44;;;-0.22;100.00
15529;BME280;7866;52.280;9.500;2024-03-08T06:32:10;100709.88;;;-0.15;100.00
15529;BME280;7866;52.280;9.500;2024-03-08T06:37:11;100714.97;;;0.02;100.00
15529;BME280;7866;52.280;9.500;2024-03-08T06:42:16;100713.94;;;0.05;100.00
15529;BME280;7866;52.280;9.500;2024-03-08T06:47:18;100710.94;;;0.25;100.00
15529;BME280;7866;52.280;9.500;2024-03-08T06:52:19;100712.91;;;0.50;100.00
15529;BME280;7866;52.280;9.500;2024-03-08T06:57:23;100717.47;;;0.75;100.00
15529;BME280;7866;52.280;9.500;2024-03-08T07:02:25;100717.91;;;0.96;100.00
15529;BME280;7866;52.280;9.500;2024-03-08T07:07:27;100711.41;;;0.87;99.05
15529;BME280;7866;52.280;9.500;2024-03-08T07:12:31;100707.91;;;1.28;99.90
15529;BME280;7866;52.280;9.500;2024-03-08T07:17:33;100705.34;;;1.27;98.65
15529;BME280;7866;52.280;9.500;2024-03-08T07:22:35;100701.59;;;1.43;98.01
15529;BME280;7866;52.280;9.500;2024-03-08T07:27:38;100693.56;;;1.32;97.60
15529;BME280;7866;52.280;9.500;2024-03-08T07:32:40;100699.28;;;1.52;97.27
15529;BME280;7866;52.280;9.500;2024-03-08T07:37:42;100693.31;;;1.62;96.99
15529;BME280;7866;52.280;9.500;2024-03-08T07:42:45;100689.81;;;1.62;95.77
15529;BME280;7866;52.280;9.500;2024-03-08T07:47:46;100691.09;;;1.69;95.91
15529;BME280;7866;52.280;9.500;2024-03-08T07:52:48;100690.78;;;1.86;95.77
15529;BME280;7866;52.280;9.500;2024-03-08T07:57:51;100685.31;;;1.77;94.90
15529;BME280;7866;52.280;9.500;2024-03-08T08:02:52;100676.75;;;1.86;94.51
15529;BME280;7866;52.280;9.500;2024-03-08T08:07:54;100680.56;;;1.82;94.41
15529;BME280;7866;52.280;9.500;2024-03-08T08:12:57;100677.63;;;2.12;94.37
15529;BME280;7866;52.280;9.500;2024-03-08T08:17:59;100683.63;;;2.01;93.96
15529;BME280;7866;52.280;9.500;2024-03-08T08:23:01;100676.84;;;2.22;93.60
15529;BME280;7866;52.280;9.500;2024-03-08T08:28:05;100659.78;;;2.39;93.39
15529;BME280;7866;52.280;9.500;2024-03-08T08:33:06;100661.34;;;2.67;93.26
15529;BME280;7866;52.280;9.500;2024-03-08T08:38:10;100656.75;;;2.69;92.42
15529;BME280;7866;52.280;9.500;2024-03-08T08:43:13;100650.97;;;2.64;92.26
15529;BME280;7866;52.280;9.500;2024-03-08T08:48:15;100646.94;;;2.95;92.38
15529;BME280;7866;52.280;9.500;2024-03-08T08:53:17;100644.19;;;2.97;91.60
15529;BME280;7866;52.280;9.500;2024-03-08T08:58:20;100648.44;;;3.11;90.76
15529;BME280;7866;52.280;9.500;2024-03-08T09:03:22;100645.22;;;3.18;90.50
15529;BME280;7866;52.280;9.500;2024-03-08T09:08:25;100638.81;;;3.45;90.90
15529;BME280;7866;52.280;9.500;2024-03-08T09:13:28;100634.75;;;3.52;90.50
15529;BME280;7866;52.280;9.500;2024-03-08T09:18:30;100633.13;;;3.85;89.59
15529;BME280;7866;52.280;9.500;2024-03-08T09:23:32;100630.00;;;3.80;88.50
15529;BME280;7866;52.280;9.500;2024-03-08T09:28:35;100625.88;;;3.87;87.87
15529;BME280;7866;52.280;9.500;2024-03-08T09:33:37;100618.06;;;3.85;86.17
15529;BME280;7866;52.280;9.500;2024-03-08T09:38:39;100614.69;;;4.06;86.18
15529;BME280;7866;52.280;9.500;2024-03-08T09:43:42;100597.22;;;4.37;85.55
15529;BME280;7866;52.280;9.500;2024-03-08T09:48:44;100589.69;;;4.64;85.02
15529;BME280;7866;52.280;9.500;2024-03-08T09:53:46;100585.69;;;4.70;84.78
15529;BME280;7866;52.280;9.500;2024-03-08T09:58:50;100568.00;;;4.91;83.46
15529;BME280;7866;52.280;9.500;2024-03-08T10:04:20;100568.22;;;5.21;82.81
15529;BME280;7866;52.280;9.500;2024-03-08T10:09:22;100548.84;;;5.30;82.80
15529;BME280;7866;52.280;9.500;2024-03-08T10:14:26;100536.50;;;5.40;82.57
15529;BME280;7866;52.280;9.500;2024-03-08T10:19:28;100531.88;;;5.42;80.34
15529;BME280;7866;52.280;9.500;2024-03-08T10:24:31;100527.84;;;5.78;80.53
15529;BME280;7866;52.280;9.500;2024-03-08T10:29:35;100517.09;;;5.80;79.02
15529;BME280;7866;52.280;9.500;2024-03-08T10:34:38;100516.84;;;5.83;78.70
15529;BME280;7866;52.280;9.500;2024-03-08T10:39:46;100500.44;;;5.99;78.70
15529;BME280;7866;52.280;9.500;2024-03-08T10:45:03;100501.06;;;5.91;78.04
15529;BME280;7866;52.280;9.500;2024-03-08T10:50:11;100499.22;;;6.32;77.02
15529;BME280;7866;52.280;9.500;2024-03-08T10:55:14;100489.97;;;6.16;75.63
15529;BME280;7866;52.280;9.500;2024-03-08T11:00:18;100488.47;;;6.43;74.33
15529;BME280;7866;52.280;9.500;2024-03-08T11:05:37;100484.25;;;6.40;75.03
15529;BME280;7866;52.280;9.500;2024-03-08T11:10:46;100482.84;;;6.36;73.02
15529;BME280;7866;52.280;9.500;2024-03-08T11:15:53;100466.19;;;6.63;73.16
15529;BME280;7866;52.280;9.500;2024-03-08T11:20:55;100461.56;;;6.65;74.90
15529;BME280;7866;52.280;9.500;2024-03-08T11:25:57;100436.34;;;6.79;74.68
15529;BME280;7866;52.280;9.500;2024-03-08T11:31:25;100424.31;;;6.75;75.06
15529;BME280;7866;52.280;9.500;2024-03-08T11:36:28;100422.72;;;6.92;73.84
15529;BME280;7866;52.280;9.500;2024-03-08T11:41:32;100400.44;;;7.03;75.28
15529;BME280;7866;52.280;9.500;2024-03-08T11:46:35;100392.06;;;6.88;75.08
15529;BME280;7866;52.280;9.500;2024-03-08T11:51:36;100391.63;;;7.30;73.56
15529;BME280;7866;52.280;9.500;2024-03-08T11:56:38;100381.88;;;7.48;72.75
15529;BME280;7866;52.280;9.500;2024-03-08T12:01:43;100375.25;;;7.25;71.79
15529;BME280;7866;52.280;9.500;2024-03-08T12:06:45;100382.31;;;7.71;72.96
15529;BME280;7866;52.280;9.500;2024-03-08T12:11:48;100366.81;;;7.57;72.42
15529;BME280;7866;52.280;9.500;2024-03-08T12:16:52;100355.38;;;7.92;72.07
15529;BME280;7866;52.280;9.500;2024-03-08T12:21:54;100354.84;;;7.88;72.29
15529;BME280;7866;52.280;9.500;2024-03-08T12:26:56;100346.38;;;7.93;71.26
15529;BME280;7866;52.280;9.500;2024-03-08T12:31:59;100340.44;;;7.99;71.53
15529;BME280;7866;52.280;9.500;2024-03-08T12:37:02;100335.03;;;7.91;71.83
15529;BME280;7866;52.280;9.500;2024-03-08T12:42:07;100317.09;;;8.37;71.57
15529;BME280;7866;52.280;9.500;2024-03-08T12:47:10;100315.66;;;8.25;67.65
15529;BME280;7866;52.280;9.500;2024-03-08T12:52:12;100297.19;;;8.31;67.90
15529;BME280;7866;52.280;9.500;2024-03-08T12:57:13;100296.25;;;8.58;71.83
15529;BME280;7866;52.280;9.500;2024-03-08T13:02:16;100286.34;;;8.51;70.61
15529;BME280;7866;52.280;9.500;2024-03-08T13:07:18;100268.56;;;8.15;69.57
15529;BME280;7866;52.280;9.500;2024-03-08T13:12:20;100258.38;;;8.11;70.65
15529;BME280;7866;52.280;9.500;2024-03-08T13:17:23;100258.53;;;8.61;70.25
15529;BME280;7866;52.280;9.500;2024-03-08T13:22:25;100254.19;;;8.60;69.58
15529;BME280;7866;52.280;9.500;2024-03-08T13:27:28;100246.84;;;8.88;69.82
15529;BME280;7866;52.280;9.500;2024-03-08T13:32:31;100249.50;;;8.54;69.48
15529;BME280;7866;52.280;9.500;2024-03-08T13:37:33;100242.94;;;8.75;68.51
15529;BME280;7866;52.280;9.500;2024-03-08T13:42:35;100236.66;;;8.92;68.52
15529;BME280;7866;52.280;9.500;2024-03-08T13:47:40;100221.16;;;8.96;67.78
15529;BME280;7866;52.280;9.500;2024-03-08T13:52:41;100215.78;;;8.87;68.68
15529;BME280;7866;52.280;9.500;2024-03-08T13:57:44;100209.63;;;8.87;68.44
15529;BME280;7866;52.280;9.500;2024-03-08T14:02:47;100205.13;;;8.96;66.23
15529;BME280;7866;52.280;9.500;2024-03-08T14:07:49;100200.00;;;9.10;68.25
15529;BME280;7866;52.280;9.500;2024-03-08T14:12:51;100202.97;;;8.91;65.97
15529;BME280;7866;52.280;9.500;2024-03-08T14:17:54;100187.56;;;8.85;68.43
15529;BME280;7866;52.280;9.500;2024-03-08T14:22:57;100180.91;;;8.97;67.60
15529;BME280;7866;52.280;9.500;2024-03-08T14:27:59;100177.53;;;8.79;68.60
15529;BME280;7866;52.280;9.500;2024-03-08T14:33:06;100173.94;;;9.12;68.51
15529;BME280;7866;52.280;9.500;2024-03-08T14:38:09;100175.81;;;9.36;66.77
15529;BME280;7866;52.280;9.500;2024-03-08T14:43:11;100158.09;;;9.03;67.55
15529;BME280;7866;52.280;9.500;2024-03-08T14:48:15;100162.41;;;9.04;68.53
15529;BME280;7866;52.280;9.500;2024-03-08T14:53:16;100141.53;;;8.99;68.85
15529;BME280;7866;52.280;9.500;2024-03-08T14:58:18;100142.94;;;8.69;67.77
15529;BME280;7866;52.280;9.500;2024-03-08T15:03:23;100133.50;;;8.91;69.37
15529;BME280;7866;52.280;9.500;2024-03-08T15:08:26;100137.00;;;8.83;69.38
15529;BME280;7866;52.280;9.500;2024-03-08T15:13:28;100123.31;;;8.78;68.57
15529;BME280;7866;52.280;9.500;2024-03-08T15:18:40;100110.38;;;8.57;69.47
15529;BME280;7866;52.280;9.500;2024-03-08T15:23:42;100107.06;;;8.55;68.89
15529;BME280;7866;52.280;9.500;2024-03-08T15:28:48;100109.22;;;8.60;69.57
15529;BME280;7866;52.280;9.500;2024-03-08T15:33:53;100111.84;;;8.44;68.97
15529;BME280;7866;52.280;9.500;2024-03-08T15:39:00;100099.00;;;8.39;68.61
15529;BME280;7866;52.280;9.500;2024-03-08T15:44:02;100097.97;;;8.40;69.29
15529;BME280;7866;52.280;9.500;2024-03-08T15:49:05;100078.94;;;8.35;70.19
15529;BME280;7866;52.280;9.500;2024-03-08T15:54:08;100078.75;;;8.36;69.35
15529;BME280;7866;52.280;9.500;2024-03-08T15:59:10;100069.72;;;8.29;70.13
15529;BME280;7866;52.280;9.500;2024-03-08T16:04:14;100063.34;;;8.14;70.00
15529;BME280;7866;52.280;9.500;2024-03-08T16:09:16;100062.13;;;8.08;70.15
15529;BME280;7866;52.280;9.500;2024-03-08T16:14:17;100051.78;;;8.05;70.92
15529;BME280;7866;52.280;9.500;2024-03-08T16:19:22;100050.25;;;7.95;71.22
15529;BME280;7866;52.280;9.500;2024-03-08T16:24:24;100053.72;;;7.87;71.51
15529;BME280;7866;52.280;9.500;2024-03-08T16:29:25;100047.69;;;7.85;72.21
15529;BME280;7866;52.280;9.500;2024-03-08T16:34:28;100049.66;;;7.75;73.33
15529;BME280;7866;52.280;9.500;2024-03-08T16:39:31;100047.47;;;7.70;73.24
15529;BME280;7866;52.280;9.500;2024-03-08T16:44:33;100037.25;;;7.65;73.70
15529;BME280;7866;52.280;9.500;2024-03-08T16:49:36;100036.69;;;7.54;74.49
15529;BME280;7866;52.280;9.500;2024-03-08T16:54:37;100044.31;;;7.49;74.63
15529;BME280;7866;52.280;9.500;2024-03-08T16:59:39;100037.94;;;7.41;74.79
15529;BME280;7866;52.280;9.500;2024-03-08T17:04:42;100043.59;;;7.38;74.63
15529;BME280;7866;52.280;9.500;2024-03-08T17:09:44;100035.16;;;7.25;75.27
15529;BME280;7866;52.280;9.500;2024-03-08T17:14:46;100032.50;;;7.25;74.66
15529;BME280;7866;52.280;9.500;2024-03-08T17:19:49;100035.63;;;7.21;74.94
15529;BME280;7866;52.280;9.500;2024-03-08T17:24:50;100037.84;;;7.07;75.15
15529;BME280;7866;52.280;9.500;2024-03-08T17:29:55;100032.47;;;6.99;74.90
15529;BME280;7866;52.280;9.500;2024-03-08T17:34:58;100030.47;;;7.01;75.08
15529;BME280;7866;52.280;9.500;2024-03-08T17:40:00;100028.97;;;6.99;75.58
15529;BME280;7866;52.280;9.500;2024-03-08T17:45:06;100032.47;;;6.99;75.19
15529;BME280;7866;52.280;9.500;2024-03-08T17:50:15;100028.75;;;6.92;75.43
15529;BME280;7866;52.280;9.500;2024-03-08T17:55:18;100030.03;;;6.88;75.88
15529;BME280;7866;52.280;9.500;2024-03-08T18:00:21;100026.84;;;6.84;76.10
15529;BME280;7866;52.280;9.500;2024-03-08T18:05:28;100019.22;;;6.89;76.08
15529;BME280;7866;52.280;9.500;2024-03-08T18:10:33;100026.59;;;6.78;76.79
15529;BME280;7866;52.280;9.500;2024-03-08T18:15:35;100019.09;;;6.73;77.04
15529;BME280;7866;52.280;9.500;2024-03-08T18:20:38;100016.50;;;6.63;77.35
15529;BME280;7866;52.280;9.500;2024-03-08T18:25:46;100019.63;;;6.59;77.82
15529;BME280;7866;52.280;9.500;2024-03-08T18:30:48;100017.19;;;6.48;78.93
15529;BME280;7866;52.280;9.500;2024-03-08T18:35:52;100018.47;;;6.44;79.18
15529;BME280;7866;52.280;9.500;2024-03-08T18:40:54;100022.25;;;6.23;79.39
15529;BME280;7866;52.280;9.500;2024-03-08T18:45:56;100023.97;;;6.14;80.17
15529;BME280;7866;52.280;9.500;2024-03-08T18:51:00;100017.66;;;6.15;80.58
15529;BME280;7866;52.280;9.500;2024-03-08T18:56:02;100014.56;;;6.20;79.89
15529;BME280;7866;52.280;9.500;2024-03-08T19:01:04;100011.53;;;6.15;79.04
15529;BME280;7866;52.280;9.500;2024-03-08T19:06:07;99996.31;;;6.07;79.57
15529;BME280;7866;52.280;9.500;2024-03-08T19:11:09;99981.38;;;5.97;79.74
15529;BME280;7866;52.280;9.500;2024-03-08T19:16:10;99967.66;;;6.01;78.75
15529;BME280;7866;52.280;9.500;2024-03-08T19:21:17;99974.69;;;5.92;79.12
15529;BME280;7866;52.280;9.500;2024-03-08T19:26:21;99969.09;;;5.86;78.66
15529;BME280;7866;52.280;9.500;2024-03-08T19:31:23;99963.69;;;5.78;78.50
15529;BME280;7866;52.280;9.500;2024-03-08T19:36:26;99955.72;;;5.78;77.64
15529;BME280;7866;52.280;9.500;2024-03-08T19:41:28;99960.25;;;5.67;78.70
15529;BME280;7866;52.280;9.500;2024-03-08T19:46:31;99955.94;;;5.66;78.33
15529;BME280;7866;52.280;9.500;2024-03-08T19:51:42;99958.31;;;5.60;77.17
15529;BME280;7866;52.280;9.500;2024-03-08T19:56:44;99964.97;;;5.74;76.38
15529;BME280;7866;52.280;9.500;2024-03-08T20:01:46;99964.41;;;5.70;76.11
15529;BME280;7866;52.280;9.500;2024-03-08T20:06:49;99961.25;;;5.66;76.63
15529;BME280;7866;52.280;9.500;2024-03-08T20:11:51;99953.16;;;5.58;77.29
15529;BME280;7866;52.280;9.500;2024-03-08T20:16:53;99942.84;;;5.46;77.45
15529;BME280;7866;52.280;9.500;2024-03-08T20:21:57;99940.94;;;5.38;78.24
15529;BME280;7866;52.280;9.500;2024-03-08T20:27:00;99936.34;;;5.30;77.95
15529;BME280;7866;52.280;9.500;2024-03-08T20:32:02;99927.16;;;5.25;77.56
15529;BME280;7866;52.280;9.500;2024-03-08T20:37:06;99927.19;;;5.15;78.02
15529;BME280;7866;52.280;9.500;2024-03-08T20:42:09;99925.69;;;5.03;79.20
15529;BME280;7866;52.280;9.500;2024-03-08T20:47:11;99908.25;;;5.00;78.84
15529;BME280;7866;52.280;9.500;2024-03-08T20:52:14;99903.09;;;4.89;79.98
15529;BME280;7866;52.280;9.500;2024-03-08T20:57:16;99901.56;;;4.86;79.18
15529;BME280;7866;52.280;9.500;2024-03-08T21:02:17;99901.31;;;4.80;79.42
15529;BME280;7866;52.280;9.500;2024-03-08T21:07:20;99886.78;;;4.74;79.89
15529;BME280;7866;52.280;9.500;2024-03-08T21:12:22;99884.31;;;4.63;80.63
15529;BME280;7866;52.280;9.500;2024-03-08T21:17:23;99886.69;;;4.56;81.34
15529;BME280;7866;52.280;9.500;2024-03-08T21:22:26;99870.09;;;4.44;81.21
15529;BME280;7866;52.280;9.500;2024-03-08T21:27:28;99867.56;;;4.53;82.34
15529;BME280;7866;52.280;9.500;2024-03-08T21:32:29;99862.28;;;4.43;82.25
15529;BME280;7866;52.280;9.500;2024-03-08T21:37:32;99858.38;;;4.37;81.42
15529;BME280;7866;52.280;9.500;2024-03-08T21:42:34;99846.38;;;4.43;81.71
15529;BME280;7866;52.280;9.500;2024-03-08T21:47:36;99860.31;;;4.45;81.98
15529;BME280;7866;52.280;9.500;2024-03-08T21:52:40;99839.22;;;4.53;82.63
15529;BME280;7866;52.280;9.500;2024-03-08T21:57:42;99834.09;;;4.42;82.72
15529;BME280;7866;52.280;9.500;2024-03-08T22:02:45;99822.38;;;4.35;82.51
15529;BME280;7866;52.280;9.500;2024-03-08T22:07:49;99817.38;;;4.32;82.98
15529;BME280;7866;52.280;9.500;2024-03-08T22:12:52;99821.56;;;4.25;82.87
15529;BME280;7866;52.280;9.500;2024-03-08T22:17:54;99819.47;;;4.18;83.18
15529;BME280;7866;52.280;9.500;2024-03-08T22:22:58;99821.31;;;4.08;83.68
15529;BME280;7866;52.280;9.500;2024-03-08T22:28:01;99807.34;;;3.97;84.50
15529;BME280;7866;52.280;9.500;2024-03-08T22:33:04;99809.44;;;3.93;83.84
15529;BME280;7866;52.280;9.500;2024-03-08T22:38:10;99802.34;;;3.84;84.80
15529;BME280;7866;52.280;9.500;2024-03-08T22:43:12;99796.63;;;3.69;84.78
15529;BME280;7866;52.280;9.500;2024-03-08T22:48:13;99789.63;;;3.58;85.29
15529;BME280;7866;52.280;9.500;2024-03-08T22:53:16;99797.53;;;3.39;86.52
15529;BME280;7866;52.280;9.500;2024-03-08T22:58:18;99791.00;;;3.43;87.42
15529;BME280;7866;52.280;9.500;2024-03-08T23:03:20;99797.53;;;3.39;87.25
15529;BME280;7866;52.280;9.500;2024-03-08T23:08:24;99796.69;;;3.29;88.72
15529;BME280;7866;52.280;9.500;2024-03-08T23:13:30;99791.16;;;3.32;88.33
15529;BME280;7866;52.280;9.500;2024-03-08T23:18:34;99790.63;;;3.48;88.32
15529;BME280;7866;52.280;9.500;2024-03-08T23:23:37;99790.63;;;3.57;88.72
15529;BME280;7866;52.280;9.500;2024-03-08T23:28:39;99786.56;;;3.53;88.11
15529;BME280;7866;52.280;9.500;2024-03-08T23:33:41;99785.84;;;3.41;87.56
15529;BME280;7866;52.280;9.500;2024-03-08T23:38:48;99789.47;;;3.40;88.88
15529;BME280;7866;52.280;9.500;2024-03-08T23:43:51;99782.19;;;3.23;87.99
15529;BME280;7866;52.280;9.500;2024-03-08T23:48:53;99790.00;;;3.25;88.70
15529;BME280;7866;52.280;9.500;2024-03-08T23:53:56;99785.81;;;3.22;88.65
15529;BME280;7866;52.280;9.500;2024-03-08T23:58:57;99781.53;;;2.90;88.82
